Terminal Aerodrome Forecast
Issued by NWS

Home | Current Version | Previous Version | Text Only | Print | Product List | Glossary On
Versions: 1 2 3 4 5 6 7 8 9 10 11 12 13 14 15 16 17
000
FTUS45 KCYS 272335
TAFLAR
TAF
KLAR 272335Z 2800/2824 33020G32KT P6SM VCSH OVC050
      TEMPO 2800/2803 2SM -SN BR OVC025
     FM280300 27013KT P6SM BKN060
     FM281700 27020G30KT P6SM BKN100=

USA.gov is the U.S. government's official web portal to all federal, state and local government web resources and services.